Terminal Aerodrome Forecast
Issued by NWS

Home | Current Version | Previous Version | Text Only | Print | Product List | Glossary On
Versions: 1 2 3 4 5 6 7 8 9 10 11 12 13 14 15 16 17 18
000
FTUS46 KHNX 211725
TAFMER
TAF
KMER 211725Z 2118/2218 VRB03KT 2SM BR OVC002
      TEMPO 2118/2119 3SM BR OVC006
     FM211900 34006KT 4SM BR BKN007
     FM220600 VRB03KT 1/4SM FG VV001=

USA.gov is the U.S. government's official web portal to all federal, state and local government web resources and services.